sensor_id;sensor_type;location;lat;lon;timestamp;pressure;altitude;pressure_sealevel;temperature;humidity
54194;BME280;40102;50.906;6.972;2023-04-10T00:01:27;101606.03;;;9.23;59.93
54194;BME280;40102;50.906;6.972;2023-04-10T00:03:52;101607.13;;;9.17;60.19
54194;BME280;40102;50.906;6.972;2023-04-10T00:06:17;101595.06;;;9.07;60.39
54194;BME280;40102;50.906;6.972;2023-04-10T00:08:43;101597.94;;;9.01;60.51
54194;BME280;40102;50.906;6.972;2023-04-10T00:11:11;101600.53;;;9.02;60.48
54194;BME280;40102;50.906;6.972;2023-04-10T00:13:36;101587.31;;;8.99;60.17
54194;BME280;40102;50.906;6.972;2023-04-10T00:16:02;101604.25;;;8.98;60.36
54194;BME280;40102;50.906;6.972;2023-04-10T00:18:27;101591.50;;;8.82;61.02
54194;BME280;40102;50.906;6.972;2023-04-10T00:20:52;101591.66;;;8.77;61.18
54194;BME280;40102;50.906;6.972;2023-04-10T00:23:18;101591.00;;;8.70;61.22
54194;BME280;40102;50.906;6.972;2023-04-10T00:25:43;101580.44;;;8.67;61.39
54194;BME280;40102;50.906;6.972;2023-04-10T00:28:08;101591.56;;;8.54;61.94
54194;BME280;40102;50.906;6.972;2023-04-10T00:30:34;101584.34;;;8.57;62.33
54194;BME280;40102;50.906;6.972;2023-04-10T00:33:00;101574.03;;;8.47;62.96
54194;BME280;40102;50.906;6.972;2023-04-10T00:35:27;101573.06;;;8.49;63.09
54194;BME280;40102;50.906;6.972;2023-04-10T00:37:59;101577.00;;;8.64;62.17
54194;BME280;40102;50.906;6.972;2023-04-10T00:40:25;101579.97;;;8.55;62.36
54194;BME280;40102;50.906;6.972;2023-04-10T00:42:51;101570.38;;;8.49;62.48
54194;BME280;40102;50.906;6.972;2023-04-10T00:45:17;101573.47;;;8.37;63.42
54194;BME280;40102;50.906;6.972;2023-04-10T00:47:43;101563.06;;;8.28;63.69
54194;BME280;40102;50.906;6.972;2023-04-10T00:50:09;101570.44;;;8.20;64.27
54194;BME280;40102;50.906;6.972;2023-04-10T00:52:35;101567.81;;;8.18;64.72
54194;BME280;40102;50.906;6.972;2023-04-10T00:55:01;101569.19;;;8.03;65.08
54194;BME280;40102;50.906;6.972;2023-04-10T00:57:27;101560.47;;;7.98;65.17
54194;BME280;40102;50.906;6.972;2023-04-10T00:59:53;101567.16;;;7.84;65.89
54194;BME280;40102;50.906;6.972;2023-04-10T01:02:19;101573.53;;;7.78;66.38
54194;BME280;40102;50.906;6.972;2023-04-10T01:04:45;101564.84;;;7.71;66.39
54194;BME280;40102;50.906;6.972;2023-04-10T01:07:34;101565.00;;;7.67;66.43
54194;BME280;40102;50.906;6.972;2023-04-10T01:10:14;101556.97;;;7.68;66.94
54194;BME280;40102;50.906;6.972;2023-04-10T01:15:39;101546.06;;;7.76;66.87
54194;BME280;40102;50.906;6.972;2023-04-10T01:18:24;101549.97;;;7.64;66.70
54194;BME280;40102;50.906;6.972;2023-04-10T01:20:51;101547.22;;;7.67;67.02
54194;BME280;40102;50.906;6.972;2023-04-10T01:25:55;101535.88;;;7.90;66.43
54194;BME280;40102;50.906;6.972;2023-04-10T01:31:41;101531.44;;;8.17;65.47
54194;BME280;40102;50.906;6.972;2023-04-10T01:34:09;101519.59;;;8.26;65.05
54194;BME280;40102;50.906;6.972;2023-04-10T01:36:41;101514.28;;;8.26;65.33
54194;BME280;40102;50.906;6.972;2023-04-10T01:39:09;101510.94;;;8.19;65.84
54194;BME280;40102;50.906;6.972;2023-04-10T01:41:35;101504.72;;;8.19;65.76
54194;BME280;40102;50.906;6.972;2023-04-10T01:44:03;101510.06;;;8.19;65.64
54194;BME280;40102;50.906;6.972;2023-04-10T01:46:29;101511.75;;;8.21;65.66
54194;BME280;40102;50.906;6.972;2023-04-10T01:48:56;101502.13;;;8.17;65.59
54194;BME280;40102;50.906;6.972;2023-04-10T01:51:25;101507.00;;;8.31;65.07
54194;BME280;40102;50.906;6.972;2023-04-10T01:53:52;101511.56;;;8.27;64.78
54194;BME280;40102;50.906;6.972;2023-04-10T01:56:17;101507.56;;;8.14;65.15
54194;BME280;40102;50.906;6.972;2023-04-10T01:58:43;101504.41;;;8.01;65.39
54194;BME280;40102;50.906;6.972;2023-04-10T02:01:08;101499.25;;;7.97;65.55
54194;BME280;40102;50.906;6.972;2023-04-10T02:03:34;101488.47;;;8.00;66.05
54194;BME280;40102;50.906;6.972;2023-04-10T02:06:25;101491.97;;;8.02;65.74
54194;BME280;40102;50.906;6.972;2023-04-10T02:08:56;101482.19;;;8.02;65.64
54194;BME280;40102;50.906;6.972;2023-04-10T02:14:03;101479.97;;;8.15;65.15
54194;BME280;40102;50.906;6.972;2023-04-10T02:16:30;101483.88;;;8.05;65.12
54194;BME280;40102;50.906;6.972;2023-04-10T02:18:57;101478.06;;;7.92;66.00
54194;BME280;40102;50.906;6.972;2023-04-10T02:21:24;101468.44;;;7.88;66.06
54194;BME280;40102;50.906;6.972;2023-04-10T02:23:51;101473.56;;;7.94;66.22
54194;BME280;40102;50.906;6.972;2023-04-10T02:26:16;101470.81;;;7.97;65.94
54194;BME280;40102;50.906;6.972;2023-04-10T02:28:42;101463.59;;;8.01;66.14
54194;BME280;40102;50.906;6.972;2023-04-10T02:31:07;101473.13;;;8.08;65.51
54194;BME280;40102;50.906;6.972;2023-04-10T02:33:32;101471.94;;;8.17;65.60
54194;BME280;40102;50.906;6.972;2023-04-10T02:35:59;101473.13;;;8.34;64.80
54194;BME280;40102;50.906;6.972;2023-04-10T02:38:25;101464.00;;;8.41;63.84
54194;BME280;40102;50.906;6.972;2023-04-10T02:40:51;101477.50;;;8.37;63.66
54194;BME280;40102;50.906;6.972;2023-04-10T02:43:17;101477.72;;;8.29;63.84
54194;BME280;40102;50.906;6.972;2023-04-10T02:45:42;101478.84;;;8.22;64.02
54194;BME280;40102;50.906;6.972;2023-04-10T02:48:08;101479.97;;;8.15;64.35
54194;BME280;40102;50.906;6.972;2023-04-10T02:50:35;101486.34;;;8.11;64.47
54194;BME280;40102;50.906;6.972;2023-04-10T02:53:00;101481.22;;;8.05;64.69
54194;BME280;40102;50.906;6.972;2023-04-10T02:55:25;101487.72;;;7.96;64.98
54194;BME280;40102;50.906;6.972;2023-04-10T02:57:51;101485.25;;;7.90;65.35
54194;BME280;40102;50.906;6.972;2023-04-10T03:00:16;101475.72;;;7.83;65.37
54194;BME280;40102;50.906;6.972;2023-04-10T03:02:43;101470.63;;;7.75;65.71
54194;BME280;40102;50.906;6.972;2023-04-10T03:05:09;101472.88;;;7.61;66.42
54194;BME280;40102;50.906;6.972;2023-04-10T03:07:35;101470.63;;;7.47;67.18
54194;BME280;40102;50.906;6.972;2023-04-10T03:10:01;101463.66;;;7.43;67.35
54194;BME280;40102;50.906;6.972;2023-04-10T03:12:26;101455.53;;;7.48;67.10
54194;BME280;40102;50.906;6.972;2023-04-10T03:14:52;101453.66;;;7.52;66.96
54194;BME280;40102;50.906;6.972;2023-04-10T03:17:17;101457.81;;;7.60;66.41
54194;BME280;40102;50.906;6.972;2023-04-10T03:19:42;101458.72;;;7.59;66.64
54194;BME280;40102;50.906;6.972;2023-04-10T03:22:08;101454.41;;;7.55;66.76
54194;BME280;40102;50.906;6.972;2023-04-10T03:24:34;101459.13;;;7.47;66.76
54194;BME280;40102;50.906;6.972;2023-04-10T03:27:00;101459.16;;;7.45;67.33
54194;BME280;40102;50.906;6.972;2023-04-10T03:29:25;101457.50;;;7.41;67.33
54194;BME280;40102;50.906;6.972;2023-04-10T03:31:51;101439.50;;;7.50;67.29
54194;BME280;40102;50.906;6.972;2023-04-10T03:34:16;101439.50;;;7.50;66.74
54194;BME280;40102;50.906;6.972;2023-04-10T03:36:42;101429.78;;;7.48;67.25
54194;BME280;40102;50.906;6.972;2023-04-10T03:39:07;101426.69;;;7.62;66.48
54194;BME280;40102;50.906;6.972;2023-04-10T03:41:33;101425.41;;;7.74;66.30
54194;BME280;40102;50.906;6.972;2023-04-10T03:43:58;101430.22;;;7.89;65.67
54194;BME280;40102;50.906;6.972;2023-04-10T03:46:26;101420.97;;;8.01;64.60
54194;BME280;40102;50.906;6.972;2023-04-10T03:48:51;101414.44;;;8.09;64.30
54194;BME280;40102;50.906;6.972;2023-04-10T03:51:18;101413.31;;;8.17;63.70
54194;BME280;40102;50.906;6.972;2023-04-10T03:53:44;101403.19;;;8.26;63.32
54194;BME280;40102;50.906;6.972;2023-04-10T03:56:09;101407.38;;;8.35;62.74
54194;BME280;40102;50.906;6.972;2023-04-10T03:58:35;101409.16;;;8.34;63.07
54194;BME280;40102;50.906;6.972;2023-04-10T04:01:00;101401.28;;;8.30;62.26
54194;BME280;40102;50.906;6.972;2023-04-10T04:03:25;101404.81;;;8.05;63.47
54194;BME280;40102;50.906;6.972;2023-04-10T04:05:51;101397.81;;;8.03;64.14
54194;BME280;40102;50.906;6.972;2023-04-10T04:08:16;101392.56;;;8.00;63.95
54194;BME280;40102;50.906;6.972;2023-04-10T04:10:42;101385.47;;;8.00;63.71
54194;BME280;40102;50.906;6.972;2023-04-10T04:13:07;101397.91;;;8.00;63.69
54194;BME280;40102;50.906;6.972;2023-04-10T04:15:33;101388.88;;;8.04;64.05
54194;BME280;40102;50.906;6.972;2023-04-10T04:17:58;101389.28;;;8.18;63.39
54194;BME280;40102;50.906;6.972;2023-04-10T04:20:25;101390.91;;;8.22;62.95
54194;BME280;40102;50.906;6.972;2023-04-10T04:22:50;101396.06;;;8.27;63.03
54194;BME280;40102;50.906;6.972;2023-04-10T04:25:15;101390.91;;;8.22;62.88
54194;BME280;40102;50.906;6.972;2023-04-10T04:27:42;101399.22;;;8.13;63.22
54194;BME280;40102;50.906;6.972;2023-04-10T04:30:08;101406.41;;;8.11;62.77
54194;BME280;40102;50.906;6.972;2023-04-10T04:32:33;101412.88;;;8.04;62.97
54194;BME280;40102;50.906;6.972;2023-04-10T04:34:59;101402.31;;;8.01;62.74
54194;BME280;40102;50.906;6.972;2023-04-10T04:37:24;101405.13;;;7.96;63.53
54194;BME280;40102;50.906;6.972;2023-04-10T04:39:50;101405.13;;;7.96;63.23
54194;BME280;40102;50.906;6.972;2023-04-10T04:42:15;101407.38;;;7.82;64.09
54194;BME280;40102;50.906;6.972;2023-04-10T04:44:40;101410.09;;;7.80;63.94
54194;BME280;40102;50.906;6.972;2023-04-10T04:47:06;101408.31;;;7.81;64.35
54194;BME280;40102;50.906;6.972;2023-04-10T04:49:31;101401.91;;;7.87;64.12
54194;BME280;40102;50.906;6.972;2023-04-10T04:51:57;101404.06;;;8.02;64.15
54194;BME280;40102;50.906;6.972;2023-04-10T04:54:22;101406.81;;;7.99;63.60
54194;BME280;40102;50.906;6.972;2023-04-10T04:56:47;101400.00;;;7.90;63.96
54194;BME280;40102;50.906;6.972;2023-04-10T04:59:13;101397.56;;;7.84;63.95
54194;BME280;40102;50.906;6.972;2023-04-10T05:01:38;101401.59;;;7.69;64.89
54194;BME280;40102;50.906;6.972;2023-04-10T05:04:03;101401.28;;;7.52;65.08
54194;BME280;40102;50.906;6.972;2023-04-10T05:06:29;101404.44;;;7.37;65.67
54194;BME280;40102;50.906;6.972;2023-04-10T05:08:55;101399.69;;;7.46;65.63
54194;BME280;40102;50.906;6.972;2023-04-10T05:11:21;101394.34;;;7.46;65.24
54194;BME280;40102;50.906;6.972;2023-04-10T05:13:47;101388.94;;;7.50;65.24
54194;BME280;40102;50.906;6.972;2023-04-10T05:16:12;101395.84;;;7.55;65.47
54194;BME280;40102;50.906;6.972;2023-04-10T05:18:37;101393.19;;;7.55;64.86
54194;BME280;40102;50.906;6.972;2023-04-10T05:21:03;101403.28;;;7.72;65.09
54194;BME280;40102;50.906;6.972;2023-04-10T05:23:28;101400.88;;;7.91;64.34
54194;BME280;40102;50.906;6.972;2023-04-10T05:25:54;101404.22;;;7.97;63.33
54194;BME280;40102;50.906;6.972;2023-04-10T05:28:19;101401.59;;;7.96;63.51
54194;BME280;40102;50.906;6.972;2023-04-10T05:30:45;101401.50;;;7.99;63.57
54194;BME280;40102;50.906;6.972;2023-04-10T05:33:10;101391.59;;;8.02;63.26
54194;BME280;40102;50.906;6.972;2023-04-10T05:35:35;101398.16;;;7.92;64.06
54194;BME280;40102;50.906;6.972;2023-04-10T05:38:01;101395.25;;;8.00;63.60
54194;BME280;40102;50.906;6.972;2023-04-10T05:40:27;101391.53;;;8.04;63.31
54194;BME280;40102;50.906;6.972;2023-04-10T05:42:53;101397.81;;;8.03;63.65
54194;BME280;40102;50.906;6.972;2023-04-10T05:45:18;101401.59;;;7.96;64.13
54194;BME280;40102;50.906;6.972;2023-04-10T05:47:44;101411.75;;;7.85;64.27
54194;BME280;40102;50.906;6.972;2023-04-10T05:50:09;101416.75;;;7.94;64.62
54194;BME280;40102;50.906;6.972;2023-04-10T05:52:35;101420.69;;;8.08;63.68
54194;BME280;40102;50.906;6.972;2023-04-10T05:55:01;101411.31;;;8.23;62.30
54194;BME280;40102;50.906;6.972;2023-04-10T05:57:28;101409.06;;;8.11;63.38
54194;BME280;40102;50.906;6.972;2023-04-10T05:59:54;101400.84;;;8.17;62.99
54194;BME280;40102;50.906;6.972;2023-04-10T06:02:20;101390.25;;;8.16;63.07
54194;BME280;40102;50.906;6.972;2023-04-10T06:04:46;101401.19;;;8.08;64.22
54194;BME280;40102;50.906;6.972;2023-04-10T06:07:11;101404.38;;;8.18;62.94
54194;BME280;40102;50.906;6.972;2023-04-10T06:09:36;101408.59;;;8.25;63.01
54194;BME280;40102;50.906;6.972;2023-04-10T06:12:02;101398.91;;;8.22;62.42
54194;BME280;40102;50.906;6.972;2023-04-10T06:14:30;101408.28;;;8.34;62.42
54194;BME280;40102;50.906;6.972;2023-04-10T06:16:55;101395.66;;;8.39;61.65
54194;BME280;40102;50.906;6.972;2023-04-10T06:19:21;101396.44;;;8.42;61.57
54194;BME280;40102;50.906;6.972;2023-04-10T06:21:46;101391.84;;;8.46;62.04
54194;BME280;40102;50.906;6.972;2023-04-10T06:24:11;101391.75;;;8.49;61.67
54194;BME280;40102;50.906;6.972;2023-04-10T06:26:38;101398.88;;;8.49;61.69
54194;BME280;40102;50.906;6.972;2023-04-10T06:29:03;101381.03;;;8.51;62.02
54194;BME280;40102;50.906;6.972;2023-04-10T06:31:31;101387.81;;;8.59;61.82
54194;BME280;40102;50.906;6.972;2023-04-10T06:33:57;101376.06;;;8.65;61.13
54194;BME280;40102;50.906;6.972;2023-04-10T06:36:22;101388.13;;;8.75;61.49
54194;BME280;40102;50.906;6.972;2023-04-10T06:38:48;101396.66;;;8.85;60.71
54194;BME280;40102;50.906;6.972;2023-04-10T06:41:13;101390.31;;;8.87;60.51
54194;BME280;40102;50.906;6.972;2023-04-10T06:43:38;101394.63;;;8.91;60.47
54194;BME280;40102;50.906;6.972;2023-04-10T06:46:04;101401.16;;;8.83;61.17
54194;BME280;40102;50.906;6.972;2023-04-10T06:48:33;101409.75;;;8.91;60.59
54194;BME280;40102;50.906;6.972;2023-04-10T06:50:59;101397.47;;;8.87;60.33
54194;BME280;40102;50.906;6.972;2023-04-10T06:53:27;101398.97;;;8.94;60.34
54194;BME280;40102;50.906;6.972;2023-04-10T06:55:53;101393.50;;;8.97;60.41
54194;BME280;40102;50.906;6.972;2023-04-10T06:58:21;101399.47;;;9.03;60.23
54194;BME280;40102;50.906;6.972;2023-04-10T07:00:46;101393.91;;;9.09;60.90
54194;BME280;40102;50.906;6.972;2023-04-10T07:03:12;101388.28;;;9.17;60.53
54194;BME280;40102;50.906;6.972;2023-04-10T07:05:37;101391.50;;;9.25;60.53
54194;BME280;40102;50.906;6.972;2023-04-10T07:08:02;101385.00;;;9.32;60.51
54194;BME280;40102;50.906;6.972;2023-04-10T07:10:28;101378.41;;;9.41;60.09
54194;BME280;40102;50.906;6.972;2023-04-10T07:12:53;101378.97;;;9.49;59.79
54194;BME280;40102;50.906;6.972;2023-04-10T07:15:21;101382.19;;;9.57;59.90
54194;BME280;40102;50.906;6.972;2023-04-10T07:17:46;101386.34;;;9.64;59.38
54194;BME280;40102;50.906;6.972;2023-04-10T07:20:12;101385.16;;;9.71;58.99
54194;BME280;40102;50.906;6.972;2023-04-10T07:22:37;101386.78;;;9.76;58.63
54194;BME280;40102;50.906;6.972;2023-04-10T07:25:03;101373.34;;;9.77;57.98
54194;BME280;40102;50.906;6.972;2023-04-10T07:27:28;101366.34;;;9.74;58.16
54194;BME280;40102;50.906;6.972;2023-04-10T07:29:54;101361.69;;;9.80;58.30
54194;BME280;40102;50.906;6.972;2023-04-10T07:32:21;101365.22;;;9.80;58.22
54194;BME280;40102;50.906;6.972;2023-04-10T07:34:47;101353.66;;;9.80;57.81
54194;BME280;40102;50.906;6.972;2023-04-10T07:37:13;101364.97;;;9.86;57.43
54194;BME280;40102;50.906;6.972;2023-04-10T07:39:38;101357.75;;;9.88;57.11
54194;BME280;40102;50.906;6.972;2023-04-10T07:42:04;101358.41;;;9.93;57.94
54194;BME280;40102;50.906;6.972;2023-04-10T07:44:29;101355.75;;;9.93;57.90
54194;BME280;40102;50.906;6.972;2023-04-10T07:46:54;101352.88;;;9.98;57.69
54194;BME280;40102;50.906;6.972;2023-04-10T07:49:21;101345.72;;;9.98;57.53
54194;BME280;40102;50.906;6.972;2023-04-10T07:51:47;101347.25;;;10.04;57.47
54194;BME280;40102;50.906;6.972;2023-04-10T07:54:12;101342.72;;;10.06;57.03
54194;BME280;40102;50.906;6.972;2023-04-10T07:56:37;101335.16;;;10.16;56.64
54194;BME280;40102;50.906;6.972;2023-04-10T07:59:04;101346.72;;;10.16;56.48
54194;BME280;40102;50.906;6.972;2023-04-10T08:01:30;101324.22;;;10.22;54.33
54194;BME280;40102;50.906;6.972;2023-04-10T08:03:55;101321.72;;;10.17;54.59
54194;BME280;40102;50.906;6.972;2023-04-10T08:06:21;101325.03;;;10.24;54.68
54194;BME280;40102;50.906;6.972;2023-04-10T08:08:46;101330.19;;;10.28;54.86
54194;BME280;40102;50.906;6.972;2023-04-10T08:13:51;101316.16;;;10.42;55.11
54194;BME280;40102;50.906;6.972;2023-04-10T08:16:24;101316.66;;;10.50;53.73
54194;BME280;40102;50.906;6.972;2023-04-10T08:18:51;101312.19;;;10.51;53.39
54194;BME280;40102;50.906;6.972;2023-04-10T08:21:17;101318.13;;;10.57;53.82
54194;BME280;40102;50.906;6.972;2023-04-10T08:23:43;101319.06;;;10.56;53.41
54194;BME280;40102;50.906;6.972;2023-04-10T08:26:10;101311.75;;;10.60;53.13
54194;BME280;40102;50.906;6.972;2023-04-10T08:28:36;101306.06;;;10.67;54.23
54194;BME280;40102;50.906;6.972;2023-04-10T08:31:02;101292.38;;;10.74;53.36
54194;BME280;40102;50.906;6.972;2023-04-10T08:33:27;101285.72;;;10.82;52.13
54194;BME280;40102;50.906;6.972;2023-04-10T08:35:53;101306.78;;;10.90;52.01
54194;BME280;40102;50.906;6.972;2023-04-10T08:38:18;101297.88;;;10.89;52.91
54194;BME280;40102;50.906;6.972;2023-04-10T08:40:45;101296.66;;;10.96;52.79
54194;BME280;40102;50.906;6.972;2023-04-10T08:43:11;101289.34;;;11.00;52.85
54194;BME280;40102;50.906;6.972;2023-04-10T08:45:38;101283.69;;;11.06;52.30
54194;BME280;40102;50.906;6.972;2023-04-10T08:48:05;101286.50;;;11.03;51.56
54194;BME280;40102;50.906;6.972;2023-04-10T08:50:32;101283.47;;;11.11;51.08
54194;BME280;40102;50.906;6.972;2023-04-10T08:53:06;101275.13;;;11.17;50.90
54194;BME280;40102;50.906;6.972;2023-04-10T08:55:33;101272.28;;;11.20;51.00
54194;BME280;40102;50.906;6.972;2023-04-10T08:58:02;101258.38;;;11.30;51.06
54194;BME280;40102;50.906;6.972;2023-04-10T09:00:32;101258.38;;;11.30;50.46
54194;BME280;40102;50.906;6.972;2023-04-10T09:02:59;101253.81;;;11.32;50.35
54194;BME280;40102;50.906;6.972;2023-04-10T09:05:26;101252.72;;;11.36;50.31
54194;BME280;40102;50.906;6.972;2023-04-10T09:07:51;101227.81;;;11.34;50.55
54194;BME280;40102;50.906;6.972;2023-04-10T09:10:16;101237.44;;;11.39;50.31
54194;BME280;40102;50.906;6.972;2023-04-10T09:12:46;101234.91;;;11.35;49.77
54194;BME280;40102;50.906;6.972;2023-04-10T09:15:12;101233.88;;;11.38;50.16
54194;BME280;40102;50.906;6.972;2023-04-10T09:18:00;101214.28;;;11.55;50.27
54194;BME280;40102;50.906;6.972;2023-04-10T09:20:28;101211.50;;;11.56;50.39
54194;BME280;40102;50.906;6.972;2023-04-10T09:22:54;101197.25;;;11.56;49.27
54194;BME280;40102;50.906;6.972;2023-04-10T09:25:37;101204.00;;;11.63;49.37
54194;BME280;40102;50.906;6.972;2023-04-10T09:28:07;101194.56;;;11.56;49.33
54194;BME280;40102;50.906;6.972;2023-04-10T09:30:40;101198.19;;;11.55;49.22
54194;BME280;40102;50.906;6.972;2023-04-10T09:33:20;101205.13;;;11.59;49.22
54194;BME280;40102;50.906;6.972;2023-04-10T09:35:45;101204.81;;;11.65;49.41
54194;BME280;40102;50.906;6.972;2023-04-10T09:38:19;101213.88;;;11.80;50.31
54194;BME280;40102;50.906;6.972;2023-04-10T09:40:46;101210.78;;;11.87;49.88
54194;BME280;40102;50.906;6.972;2023-04-10T09:43:23;101219.28;;;11.95;49.16
54194;BME280;40102;50.906;6.972;2023-04-10T09:45:53;101217.72;;;11.91;49.17
54194;BME280;40102;50.906;6.972;2023-04-10T09:48:20;101214.59;;;11.83;49.08
54194;BME280;40102;50.906;6.972;2023-04-10T09:50:46;101208.91;;;11.89;49.34
54194;BME280;40102;50.906;6.972;2023-04-10T09:53:17;101205.09;;;11.93;48.72
54194;BME280;40102;50.906;6.972;2023-04-10T09:55:44;101186.63;;;12.05;48.62
54194;BME280;40102;50.906;6.972;2023-04-10T09:58:10;101192.34;;;12.14;47.67
54194;BME280;40102;50.906;6.972;2023-04-10T10:00:44;101201.09;;;12.18;47.92
54194;BME280;40102;50.906;6.972;2023-04-10T10:03:12;101199.72;;;12.26;47.32
54194;BME280;40102;50.906;6.972;2023-04-10T10:05:42;101178.88;;;12.31;48.30
54194;BME280;40102;50.906;6.972;2023-04-10T10:08:11;101176.13;;;12.33;46.97
54194;BME280;40102;50.906;6.972;2023-04-10T10:10:45;101167.81;;;12.38;48.27
54194;BME280;40102;50.906;6.972;2023-04-10T10:13:14;101176.22;;;12.47;48.31
54194;BME280;40102;50.906;6.972;2023-04-10T10:15:47;101161.59;;;12.53;47.92
54194;BME280;40102;50.906;6.972;2023-04-10T10:18:23;101171.09;;;12.58;47.38
54194;BME280;40102;50.906;6.972;2023-04-10T10:20:50;101181.31;;;12.68;47.32
54194;BME280;40102;50.906;6.972;2023-04-10T10:23:18;101169.44;;;12.72;47.02
54194;BME280;40102;50.906;6.972;2023-04-10T10:25:44;101162.94;;;12.76;46.11
54194;BME280;40102;50.906;6.972;2023-04-10T10:28:12;101145.44;;;12.84;46.11
54194;BME280;40102;50.906;6.972;2023-04-10T10:30:38;101145.34;;;12.86;46.29
54194;BME280;40102;50.906;6.972;2023-04-10T10:33:06;101125.84;;;12.98;45.96
54194;BME280;40102;50.906;6.972;2023-04-10T10:35:33;101134.16;;;12.93;46.54
54194;BME280;40102;50.906;6.972;2023-04-10T10:38:01;101115.97;;;12.98;46.42
54194;BME280;40102;50.906;6.972;2023-04-10T10:45:51;101091.13;;;13.25;44.92
54194;BME280;40102;50.906;6.972;2023-04-10T10:48:18;101091.44;;;13.35;45.34
54194;BME280;40102;50.906;6.972;2023-04-10T10:50:55;101077.25;;;13.47;44.77
54194;BME280;40102;50.906;6.972;2023-04-10T10:55:56;101062.66;;;13.51;44.77
54194;BME280;40102;50.906;6.972;2023-04-10T10:58:48;101047.00;;;13.57;45.38
54194;BME280;40102;50.906;6.972;2023-04-10T11:01:14;101046.72;;;13.62;44.61
54194;BME280;40102;50.906;6.972;2023-04-10T11:03:40;101041.25;;;13.64;45.51
54194;BME280;40102;50.906;6.972;2023-04-10T11:06:07;101032.03;;;13.68;44.37
54194;BME280;40102;50.906;6.972;2023-04-10T11:11:20;101019.44;;;13.68;45.47
54194;BME280;40102;50.906;6.972;2023-04-10T11:19:05;101009.25;;;13.87;44.52
54194;BME280;40102;50.906;6.972;2023-04-10T11:21:32;101000.38;;;14.00;43.67
54194;BME280;40102;50.906;6.972;2023-04-10T11:29:02;100995.75;;;14.02;44.86
54194;BME280;40102;50.906;6.972;2023-04-10T11:31:28;100998.59;;;14.13;44.13
54194;BME280;40102;50.906;6.972;2023-04-10T11:36:29;100975.56;;;14.09;44.00
54194;BME280;40102;50.906;6.972;2023-04-10T11:39:04;100975.56;;;14.09;43.98
54194;BME280;40102;50.906;6.972;2023-04-10T11:41:34;100978.16;;;14.10;42.68
54194;BME280;40102;50.906;6.972;2023-04-10T11:44:06;100962.78;;;14.12;42.84
54194;BME280;40102;50.906;6.972;2023-04-10T11:46:35;100969.56;;;14.18;42.29
54194;BME280;40102;50.906;6.972;2023-04-10T11:49:04;100949.97;;;14.16;43.19
54194;BME280;40102;50.906;6.972;2023-04-10T11:51:31;100959.03;;;14.15;42.53
54194;BME280;40102;50.906;6.972;2023-04-10T11:54:10;100960.34;;;14.22;43.77
54194;BME280;40102;50.906;6.972;2023-04-10T11:56:38;100954.09;;;14.21;43.31
54194;BME280;40102;50.906;6.972;2023-04-10T11:59:04;100955.50;;;14.27;43.11
54194;BME280;40102;50.906;6.972;2023-04-10T12:01:35;100946.38;;;14.30;42.36
54194;BME280;40102;50.906;6.972;2023-04-10T12:04:02;100945.72;;;14.26;42.22
54194;BME280;40102;50.906;6.972;2023-04-10T12:06:27;100951.00;;;14.27;42.91
54194;BME280;40102;50.906;6.972;2023-04-10T12:08:53;100937.97;;;14.34;42.29
54194;BME280;40102;50.906;6.972;2023-04-10T12:11:21;100922.75;;;14.47;42.21
54194;BME280;40102;50.906;6.972;2023-04-10T12:13:50;100914.16;;;14.55;42.18
54194;BME280;40102;50.906;6.972;2023-04-10T12:16:16;100909.63;;;14.55;42.40
54194;BME280;40102;50.906;6.972;2023-04-10T12:18:42;100913.94;;;14.45;42.62
54194;BME280;40102;50.906;6.972;2023-04-10T12:21:09;100908.16;;;14.37;42.16
54194;BME280;40102;50.906;6.972;2023-04-10T12:23:36;100908.78;;;14.55;41.07
54194;BME280;40102;50.906;6.972;2023-04-10T12:26:08;100889.41;;;14.75;40.37
54194;BME280;40102;50.906;6.972;2023-04-10T12:28:35;100896.19;;;14.81;39.31
54194;BME280;40102;50.906;6.972;2023-04-10T12:31:00;100894.22;;;14.96;39.38
54194;BME280;40102;50.906;6.972;2023-04-10T12:33:27;100887.44;;;15.03;39.98
54194;BME280;40102;50.906;6.972;2023-04-10T12:35:53;100888.50;;;15.13;38.78
54194;BME280;40102;50.906;6.972;2023-04-10T12:38:51;100892.59;;;15.18;37.84
54194;BME280;40102;50.906;6.972;2023-04-10T12:41:27;100885.25;;;15.20;36.89
54194;BME280;40102;50.906;6.972;2023-04-10T12:44:09;100875.66;;;15.29;37.50
54194;BME280;40102;50.906;6.972;2023-04-10T12:46:35;100880.91;;;15.31;37.60
54194;BME280;40102;50.906;6.972;2023-04-10T12:49:10;100869.47;;;15.40;37.77
54194;BME280;40102;50.906;6.972;2023-04-10T12:51:47;100873.56;;;15.45;38.39
54194;BME280;40102;50.906;6.972;2023-04-10T12:54:29;100875.91;;;15.50;37.29
54194;BME280;40102;50.906;6.972;2023-04-10T12:56:56;100860.13;;;15.57;37.61
54194;BME280;40102;50.906;6.972;2023-04-10T12:59:22;100859.97;;;15.71;37.53
54194;BME280;40102;50.906;6.972;2023-04-10T13:01:48;100868.22;;;15.80;37.36
54194;BME280;40102;50.906;6.972;2023-04-10T13:04:13;100870.69;;;15.83;36.37
54194;BME280;40102;50.906;6.972;2023-04-10T13:06:46;100862.88;;;15.92;36.59
54194;BME280;40102;50.906;6.972;2023-04-10T13:09:12;100845.38;;;15.97;36.83
54194;BME280;40102;50.906;6.972;2023-04-10T13:11:38;100843.44;;;15.99;36.56
54194;BME280;40102;50.906;6.972;2023-04-10T13:14:04;100841.38;;;16.14;36.03
54194;BME280;40102;50.906;6.972;2023-04-10T13:16:29;100831.97;;;16.19;35.62
54194;BME280;40102;50.906;6.972;2023-04-10T13:18:55;100822.19;;;16.30;36.62
54194;BME280;40102;50.906;6.972;2023-04-10T13:21:20;100820.69;;;16.26;37.04
54194;BME280;40102;50.906;6.972;2023-04-10T13:23:53;100826.94;;;16.26;37.24
54194;BME280;40102;50.906;6.972;2023-04-10T13:26:18;100822.31;;;16.39;38.04
54194;BME280;40102;50.906;6.972;2023-04-10T13:28:43;100815.06;;;16.40;37.47
54194;BME280;40102;50.906;6.972;2023-04-10T13:31:09;100812.88;;;16.45;37.29
54194;BME280;40102;50.906;6.972;2023-04-10T13:33:35;100795.44;;;16.49;36.52